Time,TemperatureF,DewpointF,PressureIn,WindDirection,WindDirectionDegrees,WindSpeedMPH,WindSpeedGustMPH,Humidity,HourlyPrecipIn,Conditions,Clouds,dailyrainin,SoftwareType,DateUTC
2013-04-04 16:17:00,41.8,13.8,28.16,West,269,7.0,7.0,32,0.00,,,2.09,WUHU216DAVISWMX,2013-04-04 20:17:00,
2013-04-04 16:18:00,41.8,13.8,28.16,West,271,0.0,7.0,32,0.00,,,2.09,WUHU216DAVISWMX,2013-04-04 20:18:00,
2013-04-04 16:23:00,41.8,13.8,28.16,SW,229,1.0,9.0,32,0.00,,,2.09,WUHU216DAVISWMX,2013-04-04 20:23:00,
2013-04-04 16:28:00,41.8,13.8,28.16,SSW,201,0.0,10.0,32,0.00,,,2.09,WUHU216DAVISWMX,2013-04-04 20:28:00,
2013-04-04 16:33:00,41.8,13.8,28.16,SSW,201,0.0,10.0,32,0.00,,,2.09,WUHU216DAVISWMX,2013-04-04 20:33:00,
2013-04-04 16:38:00,41.9,13.9,28.15,SSW,211,2.0,15.0,32,0.00,,,2.09,WUHU216DAVISWMX,2013-04-04 20:38:00,
2013-04-04 16:43:00,41.9,13.2,28.15,SSW,202,5.0,15.0,31,0.00,,,2.09,WUHU216DAVISWMX,2013-04-04 20:43:00,
2013-04-04 16:48:00,42.2,17.5,28.15,WSW,244,0.0,8.0,37,0.00,,,2.09,WUHU216DAVISWMX,2013-04-04 20:48:00,
2013-04-04 16:53:00,42.3,17.0,28.15,WSW,255,0.0,12.0,36,0.00,,,2.09,WUHU216DAVISWMX,2013-04-04 20:53:00,
2013-04-04 16:58:00,42.2,16.9,28.15,SSW,208,0.0,13.0,36,0.00,,,2.09,WUHU216DAVISWMX,2013-04-04 20:58:00,
2013-04-04 17:03:00,42.1,18.7,28.14,SSW,192,5.0,14.0,39,0.00,,,2.09,WUHU216DAVISWMX,2013-04-04 21:03:00,
2013-04-04 17:08:00,42.2,17.5,28.14,SSW,204,7.0,16.0,37,0.00,,,2.09,WUHU216DAVISWMX,2013-04-04 21:08:00,
2013-04-04 17:13:00,42.2,17.5,28.14,SW,221,0.0,16.0,37,0.00,,,2.09,WUHU216DAVISWMX,2013-04-04 21:13:00,
2013-04-04 17:18:00,42.2,16.9,28.13,WNW,302,0.0,14.0,36,0.00,,,2.09,WUHU216DAVISWMX,2013-04-04 21:18:00,
2013-04-04 17:23:00,42.2,17.5,28.13,WSW,255,0.0,14.0,37,0.00,,,2.09,WUHU216DAVISWMX,2013-04-04 21:23:00,
2013-04-04 17:28:00,42.3,17.0,28.13,SW,233,0.0,9.0,36,0.00,,,2.09,WUHU216DAVISWMX,2013-04-04 21:28:00,
2013-04-04 17:33:00,42.3,17.6,28.13,SSW,212,0.0,13.0,37,0.00,,,2.09,WUHU216DAVISWMX,2013-04-04 21:33:00,
2013-04-04 17:38:00,42.3,17.0,28.13,WSW,256,0.0,13.0,36,0.00,,,2.09,WUHU216DAVISWMX,2013-04-04 21:38:00,
2013-04-04 17:43:00,42.3,17.6,28.12,SSW,210,0.0,9.0,37,0.00,,,2.09,WUHU216DAVISWMX,2013-04-04 21:43:00,
2013-04-04 17:48:00,42.2,17.5,28.13,WSW,242,4.0,14.0,37,0.00,,,2.09,WUHU216DAVISWMX,2013-04-04 21:48:00,
2013-04-04 17:53:00,42.2,17.5,28.13,West,273,0.0,14.0,37,0.00,,,2.09,WUHU216DAVISWMX,2013-04-04 21:53:00,
2013-04-04 17:58:00,42.2,17.5,28.13,SW,227,0.0,7.0,37,0.00,,,2.09,WUHU216DAVISWMX,2013-04-04 21:58:00,
2013-04-04 18:03:00,42.2,17.5,28.12,SW,222,0.0,14.0,37,0.00,,,2.09,WUHU216DAVISWMX,2013-04-04 22:03:00,
2013-04-04 18:08:00,42.1,17.5,28.12,SW,231,4.0,14.0,37,0.00,,,2.09,WUHU216DAVISWMX,2013-04-04 22:08:00,
2013-04-04 18:13:00,42.0,17.4,28.13,South,184,0.0,10.0,37,0.00,,,2.09,WUHU216DAVISWMX,2013-04-04 22:13:00,
2013-04-04 18:18:00,42.1,17.5,28.12,South,184,0.0,7.0,37,0.00,,,2.09,WUHU216DAVISWMX,2013-04-04 22:18:00,
2013-04-04 18:23:00,42.1,17.5,28.12,South,184,0.0,0.0,37,0.00,,,2.09,WUHU216DAVISWMX,2013-04-04 22:23:00,
2013-04-04 18:28:00,42.1,18.7,28.12,SSW,192,0.0,17.0,39,0.00,,,2.09,WUHU216DAVISWMX,2013-04-04 22:28:00,
2013-04-04 18:33:00,42.0,18.6,28.12,SW,230,0.0,17.0,39,0.00,,,2.09,WUHU216DAVISWMX,2013-04-04 22:33:00,
2013-04-04 18:38:00,41.7,18.3,28.12,WSW,245,6.0,18.0,39,0.00,,,2.09,WUHU216DAVISWMX,2013-04-04 22:38:00,
2013-04-04 18:43:00,41.7,17.7,28.11,SSW,213,0.0,18.0,38,0.00,,,2.09,WUHU216DAVISWMX,2013-04-04 22:43:00,
2013-04-04 18:48:00,41.7,17.7,28.12,WSW,244,6.0,14.0,38,0.00,,,2.09,WUHU216DAVISWMX,2013-04-04 22:48:00,
2013-04-04 18:53:00,41.7,18.3,28.11,West,268,0.0,12.0,39,0.00,,,2.09,WUHU216DAVISWMX,2013-04-04 22:53:00,
2013-04-04 18:58:00,41.7,18.3,28.11,SW,232,0.0,12.0,39,0.00,,,2.09,WUHU216DAVISWMX,2013-04-04 22:58:00,
2013-04-04 19:03:00,41.3,18.0,28.11,WNW,282,0.0,10.0,39,0.00,,,2.09,WUHU216DAVISWMX,2013-04-04 23:03:00,
2013-04-04 19:08:00,41.3,18.0,28.11,SSW,201,0.0,9.0,39,0.00,,,2.09,WUHU216DAVISWMX,2013-04-04 23:08:00,
2013-04-04 19:13:00,41.3,18.6,28.11,West,259,0.0,9.0,40,0.00,,,2.09,WUHU216DAVISWMX,2013-04-04 23:13:00,
2013-04-04 19:18:00,41.3,18.6,28.10,West,259,0.0,8.0,40,0.00,,,2.09,WUHU216DAVISWMX,2013-04-04 23:18:00,
2013-04-04 19:23:00,41.3,18.6,28.11,West,259,0.0,0.0,40,0.00,,,2.09,WUHU216DAVISWMX,2013-04-04 23:23:00,
2013-04-04 19:28:00,41.3,18.6,28.10,West,259,0.0,0.0,40,0.00,,,2.09,WUHU216DAVISWMX,2013-04-04 23:28:00,
2013-04-04 19:33:00,40.2,17.6,28.10,West,264,0.0,7.0,40,0.00,,,2.09,WUHU216DAVISWMX,2013-04-04 23:33:00,
2013-04-04 19:38:00,40.0,17.4,28.10,WNW,283,6.0,7.0,40,0.00,,,2.09,WUHU216DAVISWMX,2013-04-04 23:38:00,
2013-04-04 19:43:00,39.9,17.9,28.10,WSW,240,0.0,12.0,41,0.00,,,2.09,WUHU216DAVISWMX,2013-04-04 23:43:00,
2013-04-04 19:48:00,39.9,18.5,28.10,WSW,240,0.0,12.0,42,0.00,,,2.09,WUHU216DAVISWMX,2013-04-04 23:48:00,
2013-04-04 19:53:00,39.9,18.5,28.10,WSW,240,0.0,0.0,42,0.00,,,2.09,WUHU216DAVISWMX,2013-04-04 23:53:00,
2013-04-04 19:58:00,39.9,18.5,28.10,WSW,240,0.0,0.0,42,0.00,,,2.09,WUHU216DAVISWMX,2013-04-04 23:58:00,
2013-04-04 20:03:00,39.9,19.0,28.10,West,267,0.0,4.0,43,0.00,,,2.09,WUHU216DAVISWMX,2013-04-05 00:03:00,
2013-04-04 20:08:00,39.9,19.0,28.10,West,267,0.0,4.0,43,0.00,,,2.09,WUHU216DAVISWMX,2013-04-05 00:08:00,
2013-04-04 20:13:00,39.9,19.0,28.10,West,267,0.0,0.0,43,0.00,,,2.09,WUHU216DAVISWMX,2013-04-05 00:13:00,
2013-04-04 20:18:00,39.9,19.0,28.10,West,267,0.0,0.0,43,0.00,,,2.09,WUHU216DAVISWMX,2013-04-05 00:18:00,
2013-04-04 20:23:00,39.9,19.0,28.09,West,267,0.0,0.0,43,0.00,,,2.09,WUHU216DAVISWMX,2013-04-05 00:23:00,
2013-04-04 20:28:00,39.9,19.0,28.09,West,267,0.0,0.0,43,0.00,,,2.09,WUHU216DAVISWMX,2013-04-05 00:28:00,
2013-04-04 20:30:00,39.9,19.0,28.09,West,267,0.0,0.0,43,0.00,,,2.09,WUHU216DAVISWMX,2013-04-05 00:30:00,
2013-04-04 20:33:00,39.9,19.0,28.09,West,267,0.0,0.0,43,0.00,,,2.09,WUHU216DAVISWMX,2013-04-05 00:33:00,
2013-04-04 20:38:00,39.9,19.0,28.09,West,267,0.0,0.0,43,0.00,,,2.09,WUHU216DAVISWMX,2013-04-05 00:38:00,